Observations

BIA Manual Entry


Date Temp Humidity Rainfall Dew Point Wind Direction Wind Speed Wind Pressure Condition Visibility
2025-03-25 23:01:56 26 91 25 230 1.9 1009 Partly Cloudy (Night) 10 km
2025-03-25 21:59:49 27 87 24 010 1.9 1009 Partly Cloudy (Night) 10 KM
2025-03-25 21:02:01 27 87 0.00 24 010 3.8 1008 Partly Cloudy (Night) 10 km
2025-03-25 20:02:59 27 86 0.00 24 010 1.9 1008 Partly Cloudy (Night) 10 km
2025-03-25 19:01:59 27 86 0.00 24 280 9.5 1007 Partly Cloudy (Night) 10 km
2025-03-25 18:02:44 27 85 0.00 25 300 9.5 1006 Distant showers 10 km
2025-03-25 17:01:04 28 84 0.00 25 280 15.2 1005 Distant showers 10 km
2025-03-25 15:59:55 28 83 25 310 17.1 1005 Distant showers 15 km
2025-03-25 14:59:12 29 75 24 290 17.1 1006 Partly Cloudy (Day) 20 km
2025-03-25 13:59:40 29 76 24 280 15.2 1006 Partly Cloudy (Day) 20 km
2025-03-25 12:59:17 29 77 24 300 15.2 1007 Light Haze 15 KM
2025-03-25 11:59:43 30 70 24 320 11.4 1008 Light Haze 15 KM
2025-03-25 11:00:22 30 67 24 010 7.6 1008 Light Haze 15 KM
2025-03-25 09:59:41 28 73 23 100 5.7 1009 Light Haze 10 KM
2025-03-25 09:00:55 27 81 24 140 7.6 1009 Haze 10 KM
2025-03-25 08:00:22 25 89 23 200 1.9 1009 Haze 15 KM
2025-03-25 06:56:35 25 95 24 210 3.8 1009 Partly Cloudy (Day) 10 KM
2025-03-25 05:56:40 24 95 23 240 3.8 1008 Partly Cloudy (Night) 10 km
2025-03-25 04:57:53 24 95 23 260 3.8 1008 Partly Cloudy (Night) 10 KM
2025-03-25 03:57:00 24 94 23 180 3.8 1008 Partly Cloudy (Night) 10 KM
2025-03-25 02:57:53 25 95 24 170 5.7 1008 Partly Cloudy (Night) 10 km
2025-03-25 01:57:57 25 97 0.0 24 120 1.0 1009 Rain 10 KM
2025-03-25 00:57:40 25 96 0.0 24 090 1.0 1010 Rain 08 KM
2025-03-24 23:56:52 25 95 0.0 24 120 2.0 1011 Rain 08 KM
2025-03-24 23:00:28 25 96 0.0 24 060 3.0 1011 Rain 08 KM